sensor_id;sensor_type;location;lat;lon;timestamp;P1;durP1;ratioP1;P2;durP2;ratioP2
19089;SDS011;9677;50.656;13.064;2022-09-09T00:01:22;9.33;;;8.53;;
19089;SDS011;9677;50.656;13.064;2022-09-09T00:04:02;9.17;;;8.37;;
19089;SDS011;9677;50.656;13.064;2022-09-09T00:06:43;9.57;;;8.77;;
19089;SDS011;9677;50.656;13.064;2022-09-09T00:09:17;9.20;;;8.40;;
19089;SDS011;9677;50.656;13.064;2022-09-09T00:11:51;9.47;;;8.67;;
19089;SDS011;9677;50.656;13.064;2022-09-09T00:14:26;9.47;;;8.67;;
19089;SDS011;9677;50.656;13.064;2022-09-09T00:17:04;9.53;;;8.73;;
19089;SDS011;9677;50.656;13.064;2022-09-09T00:19:44;9.17;;;8.37;;
19089;SDS011;9677;50.656;13.064;2022-09-09T00:22:21;9.40;;;8.60;;
19089;SDS011;9677;50.656;13.064;2022-09-09T00:24:53;9.53;;;8.63;;
19089;SDS011;9677;50.656;13.064;2022-09-09T00:27:25;9.30;;;8.50;;
19089;SDS011;9677;50.656;13.064;2022-09-09T00:30:12;9.80;;;8.90;;
19089;SDS011;9677;50.656;13.064;2022-09-09T00:32:46;9.40;;;8.60;;
19089;SDS011;9677;50.656;13.064;2022-09-09T00:35:17;9.30;;;8.50;;
19089;SDS011;9677;50.656;13.064;2022-09-09T00:37:52;9.20;;;8.40;;
19089;SDS011;9677;50.656;13.064;2022-09-09T00:40:25;9.40;;;8.60;;
19089;SDS011;9677;50.656;13.064;2022-09-09T00:43:08;9.20;;;8.40;;
19089;SDS011;9677;50.656;13.064;2022-09-09T00:45:57;9.67;;;8.87;;
19089;SDS011;9677;50.656;13.064;2022-09-09T00:48:58;9.63;;;8.83;;
19089;SDS011;9677;50.656;13.064;2022-09-09T00:51:35;9.30;;;8.50;;
19089;SDS011;9677;50.656;13.064;2022-09-09T00:54:26;9.40;;;8.60;;
19089;SDS011;9677;50.656;13.064;2022-09-09T00:57:06;9.60;;;8.70;;
19089;SDS011;9677;50.656;13.064;2022-09-09T00:59:46;9.40;;;8.60;;
19089;SDS011;9677;50.656;13.064;2022-09-09T01:02:21;9.30;;;8.50;;
19089;SDS011;9677;50.656;13.064;2022-09-09T01:04:58;9.53;;;8.73;;
19089;SDS011;9677;50.656;13.064;2022-09-09T01:07:32;9.40;;;8.60;;
19089;SDS011;9677;50.656;13.064;2022-09-09T01:10:03;9.37;;;8.57;;
19089;SDS011;9677;50.656;13.064;2022-09-09T01:12:40;9.20;;;8.40;;
19089;SDS011;9677;50.656;13.064;2022-09-09T01:15:17;9.40;;;8.60;;
19089;SDS011;9677;50.656;13.064;2022-09-09T01:17:56;9.60;;;8.70;;
19089;SDS011;9677;50.656;13.064;2022-09-09T01:20:36;9.60;;;8.70;;
19089;SDS011;9677;50.656;13.064;2022-09-09T01:23:18;9.57;;;8.60;;
19089;SDS011;9677;50.656;13.064;2022-09-09T01:26:24;9.43;;;8.63;;
19089;SDS011;9677;50.656;13.064;2022-09-09T01:28:59;9.30;;;8.40;;
19089;SDS011;9677;50.656;13.064;2022-09-09T01:31:35;9.40;;;8.60;;
19089;SDS011;9677;50.656;13.064;2022-09-09T01:34:09;9.50;;;8.70;;
19089;SDS011;9677;50.656;13.064;2022-09-09T01:36:41;9.20;;;8.40;;
19089;SDS011;9677;50.656;13.064;2022-09-09T01:39:13;9.50;;;8.70;;
19089;SDS011;9677;50.656;13.064;2022-09-09T01:41:44;9.30;;;8.50;;
19089;SDS011;9677;50.656;13.064;2022-09-09T01:44:16;9.40;;;8.60;;
19089;SDS011;9677;50.656;13.064;2022-09-09T01:46:47;9.20;;;8.40;;
19089;SDS011;9677;50.656;13.064;2022-09-09T01:49:17;9.30;;;8.50;;
19089;SDS011;9677;50.656;13.064;2022-09-09T01:51:49;9.53;;;8.73;;
19089;SDS011;9677;50.656;13.064;2022-09-09T01:54:31;9.40;;;8.53;;
19089;SDS011;9677;50.656;13.064;2022-09-09T01:57:11;9.27;;;8.47;;
19089;SDS011;9677;50.656;13.064;2022-09-09T01:59:53;9.40;;;8.60;;
19089;SDS011;9677;50.656;13.064;2022-09-09T02:02:42;9.40;;;8.60;;
19089;SDS011;9677;50.656;13.064;2022-09-09T02:05:26;9.60;;;8.70;;
19089;SDS011;9677;50.656;13.064;2022-09-09T02:08:05;9.37;;;8.57;;
19089;SDS011;9677;50.656;13.064;2022-09-09T02:10:47;9.50;;;8.70;;
19089;SDS011;9677;50.656;13.064;2022-09-09T02:13:44;9.40;;;8.60;;
19089;SDS011;9677;50.656;13.064;2022-09-09T02:16:17;9.20;;;8.40;;
19089;SDS011;9677;50.656;13.064;2022-09-09T02:18:53;9.47;;;8.60;;
19089;SDS011;9677;50.656;13.064;2022-09-09T02:21:38;9.60;;;8.77;;
19089;SDS011;9677;50.656;13.064;2022-09-09T02:24:09;9.60;;;8.70;;
19089;SDS011;9677;50.656;13.064;2022-09-09T02:26:49;9.30;;;8.50;;
19089;SDS011;9677;50.656;13.064;2022-09-09T02:29:22;9.30;;;8.50;;
19089;SDS011;9677;50.656;13.064;2022-09-09T02:31:54;9.37;;;8.57;;
19089;SDS011;9677;50.656;13.064;2022-09-09T02:34:33;9.57;;;8.70;;
19089;SDS011;9677;50.656;13.064;2022-09-09T02:37:07;9.30;;;8.50;;
19089;SDS011;9677;50.656;13.064;2022-09-09T02:39:42;9.83;;;8.93;;
19089;SDS011;9677;50.656;13.064;2022-09-09T02:42:14;9.50;;;8.70;;
19089;SDS011;9677;50.656;13.064;2022-09-09T02:44:45;11.27;;;8.80;;
19089;SDS011;9677;50.656;13.064;2022-09-09T02:47:20;9.43;;;8.63;;
19089;SDS011;9677;50.656;13.064;2022-09-09T02:50:06;9.33;;;8.53;;
19089;SDS011;9677;50.656;13.064;2022-09-09T02:52:44;9.40;;;8.60;;
19089;SDS011;9677;50.656;13.064;2022-09-09T02:55:23;9.37;;;8.57;;
19089;SDS011;9677;50.656;13.064;2022-09-09T02:58:05;9.50;;;8.70;;
19089;SDS011;9677;50.656;13.064;2022-09-09T03:00:40;9.50;;;8.70;;
19089;SDS011;9677;50.656;13.064;2022-09-09T03:03:09;9.40;;;8.60;;
19089;SDS011;9677;50.656;13.064;2022-09-09T03:05:38;12.30;;;9.60;;
19089;SDS011;9677;50.656;13.064;2022-09-09T03:08:10;9.83;;;8.83;;
19089;SDS011;9677;50.656;13.064;2022-09-09T03:10:40;9.57;;;8.77;;
19089;SDS011;9677;50.656;13.064;2022-09-09T03:13:09;9.37;;;8.57;;
19089;SDS011;9677;50.656;13.064;2022-09-09T03:15:40;9.57;;;8.77;;
19089;SDS011;9677;50.656;13.064;2022-09-09T03:18:14;9.40;;;8.60;;
19089;SDS011;9677;50.656;13.064;2022-09-09T03:20:47;9.90;;;9.00;;
19089;SDS011;9677;50.656;13.064;2022-09-09T03:23:16;12.23;;;8.70;;
19089;SDS011;9677;50.656;13.064;2022-09-09T03:25:48;9.63;;;8.80;;
19089;SDS011;9677;50.656;13.064;2022-09-09T03:28:25;9.50;;;8.70;;
19089;SDS011;9677;50.656;13.064;2022-09-09T03:31:01;9.50;;;8.70;;
19089;SDS011;9677;50.656;13.064;2022-09-09T03:33:37;9.40;;;8.60;;
19089;SDS011;9677;50.656;13.064;2022-09-09T03:36:09;9.43;;;8.63;;
19089;SDS011;9677;50.656;13.064;2022-09-09T03:38:38;9.50;;;8.70;;
19089;SDS011;9677;50.656;13.064;2022-09-09T03:41:07;9.73;;;8.83;;
19089;SDS011;9677;50.656;13.064;2022-09-09T03:43:37;9.60;;;8.80;;
19089;SDS011;9677;50.656;13.064;2022-09-09T03:46:07;9.73;;;8.83;;
19089;SDS011;9677;50.656;13.064;2022-09-09T03:48:36;9.63;;;8.83;;
19089;SDS011;9677;50.656;13.064;2022-09-09T03:51:04;9.70;;;8.90;;
19089;SDS011;9677;50.656;13.064;2022-09-09T03:53:34;9.80;;;8.97;;
19089;SDS011;9677;50.656;13.064;2022-09-09T03:56:04;9.47;;;8.60;;
19089;SDS011;9677;50.656;13.064;2022-09-09T03:58:34;9.70;;;8.80;;
19089;SDS011;9677;50.656;13.064;2022-09-09T04:01:08;9.70;;;8.70;;
19089;SDS011;9677;50.656;13.064;2022-09-09T04:03:41;9.40;;;8.60;;
19089;SDS011;9677;50.656;13.064;2022-09-09T04:06:10;9.40;;;8.60;;
19089;SDS011;9677;50.656;13.064;2022-09-09T04:08:44;9.90;;;9.03;;
19089;SDS011;9677;50.656;13.064;2022-09-09T04:11:15;9.63;;;8.83;;
19089;SDS011;9677;50.656;13.064;2022-09-09T04:13:45;9.60;;;8.70;;
19089;SDS011;9677;50.656;13.064;2022-09-09T04:16:18;9.73;;;8.83;;
19089;SDS011;9677;50.656;13.064;2022-09-09T04:18:47;10.30;;;8.80;;
19089;SDS011;9677;50.656;13.064;2022-09-09T04:21:16;9.50;;;8.70;;
19089;SDS011;9677;50.656;13.064;2022-09-09T04:23:45;9.60;;;8.70;;
19089;SDS011;9677;50.656;13.064;2022-09-09T04:26:13;9.50;;;8.70;;
19089;SDS011;9677;50.656;13.064;2022-09-09T04:28:43;9.60;;;8.80;;
19089;SDS011;9677;50.656;13.064;2022-09-09T04:31:17;9.50;;;8.70;;
19089;SDS011;9677;50.656;13.064;2022-09-09T04:33:52;9.50;;;8.70;;
19089;SDS011;9677;50.656;13.064;2022-09-09T04:36:21;9.67;;;8.80;;
19089;SDS011;9677;50.656;13.064;2022-09-09T04:38:53;9.80;;;8.80;;
19089;SDS011;9677;50.656;13.064;2022-09-09T04:41:22;9.60;;;8.80;;
19089;SDS011;9677;50.656;13.064;2022-09-09T04:43:52;9.63;;;8.83;;
19089;SDS011;9677;50.656;13.064;2022-09-09T04:46:22;9.60;;;8.80;;
19089;SDS011;9677;50.656;13.064;2022-09-09T04:48:51;9.60;;;8.80;;
19089;SDS011;9677;50.656;13.064;2022-09-09T04:51:24;9.47;;;8.67;;
19089;SDS011;9677;50.656;13.064;2022-09-09T04:53:53;9.70;;;8.90;;
19089;SDS011;9677;50.656;13.064;2022-09-09T04:56:22;9.67;;;8.87;;
19089;SDS011;9677;50.656;13.064;2022-09-09T04:58:56;9.50;;;8.70;;
19089;SDS011;9677;50.656;13.064;2022-09-09T05:01:38;9.30;;;8.50;;
19089;SDS011;9677;50.656;13.064;2022-09-09T05:04:07;9.80;;;9.00;;
19089;SDS011;9677;50.656;13.064;2022-09-09T05:06:35;9.60;;;8.80;;
19089;SDS011;9677;50.656;13.064;2022-09-09T05:09:04;10.07;;;9.20;;
19089;SDS011;9677;50.656;13.064;2022-09-09T05:11:33;9.67;;;8.70;;
19089;SDS011;9677;50.656;13.064;2022-09-09T05:14:08;9.53;;;8.73;;
19089;SDS011;9677;50.656;13.064;2022-09-09T05:16:39;9.50;;;8.70;;
19089;SDS011;9677;50.656;13.064;2022-09-09T05:19:07;9.77;;;8.87;;
19089;SDS011;9677;50.656;13.064;2022-09-09T05:21:49;9.60;;;8.80;;
19089;SDS011;9677;50.656;13.064;2022-09-09T05:24:22;9.60;;;8.80;;
19089;SDS011;9677;50.656;13.064;2022-09-09T05:26:53;9.87;;;8.87;;
19089;SDS011;9677;50.656;13.064;2022-09-09T05:29:26;9.90;;;9.00;;
19089;SDS011;9677;50.656;13.064;2022-09-09T05:31:57;9.60;;;8.70;;
19089;SDS011;9677;50.656;13.064;2022-09-09T05:34:25;9.30;;;8.50;;
19089;SDS011;9677;50.656;13.064;2022-09-09T05:36:54;9.90;;;9.00;;
19089;SDS011;9677;50.656;13.064;2022-09-09T05:39:23;9.30;;;8.50;;
19089;SDS011;9677;50.656;13.064;2022-09-09T05:41:51;9.90;;;8.93;;
19089;SDS011;9677;50.656;13.064;2022-09-09T05:44:20;9.63;;;8.83;;
19089;SDS011;9677;50.656;13.064;2022-09-09T05:46:49;9.70;;;8.80;;
19089;SDS011;9677;50.656;13.064;2022-09-09T05:49:19;10.73;;;8.77;;
19089;SDS011;9677;50.656;13.064;2022-09-09T05:51:48;9.60;;;8.70;;
19089;SDS011;9677;50.656;13.064;2022-09-09T05:54:19;9.30;;;8.50;;
19089;SDS011;9677;50.656;13.064;2022-09-09T05:56:50;9.50;;;8.70;;
19089;SDS011;9677;50.656;13.064;2022-09-09T05:59:20;9.30;;;8.50;;
19089;SDS011;9677;50.656;13.064;2022-09-09T06:01:51;9.60;;;8.80;;
19089;SDS011;9677;50.656;13.064;2022-09-09T06:04:30;9.40;;;8.60;;
19089;SDS011;9677;50.656;13.064;2022-09-09T06:07:00;9.40;;;8.60;;
19089;SDS011;9677;50.656;13.064;2022-09-09T06:09:29;9.50;;;8.70;;
19089;SDS011;9677;50.656;13.064;2022-09-09T06:11:58;9.70;;;8.90;;
19089;SDS011;9677;50.656;13.064;2022-09-09T06:14:26;9.20;;;8.40;;
19089;SDS011;9677;50.656;13.064;2022-09-09T06:16:58;9.60;;;8.80;;
19089;SDS011;9677;50.656;13.064;2022-09-09T06:19:28;9.80;;;8.80;;
19089;SDS011;9677;50.656;13.064;2022-09-09T06:21:59;9.40;;;8.60;;
19089;SDS011;9677;50.656;13.064;2022-09-09T06:24:30;9.47;;;8.63;;
19089;SDS011;9677;50.656;13.064;2022-09-09T06:27:00;9.27;;;8.47;;
19089;SDS011;9677;50.656;13.064;2022-09-09T06:29:32;9.40;;;8.50;;
19089;SDS011;9677;50.656;13.064;2022-09-09T06:32:01;9.90;;;9.00;;
19089;SDS011;9677;50.656;13.064;2022-09-09T06:34:32;9.40;;;8.60;;
19089;SDS011;9677;50.656;13.064;2022-09-09T06:37:01;9.50;;;8.70;;
19089;SDS011;9677;50.656;13.064;2022-09-09T06:39:41;9.40;;;8.50;;
19089;SDS011;9677;50.656;13.064;2022-09-09T06:42:10;9.20;;;8.40;;
19089;SDS011;9677;50.656;13.064;2022-09-09T06:44:47;9.30;;;8.50;;
19089;SDS011;9677;50.656;13.064;2022-09-09T06:47:36;9.67;;;8.80;;
19089;SDS011;9677;50.656;13.064;2022-09-09T06:50:06;9.10;;;8.30;;
19089;SDS011;9677;50.656;13.064;2022-09-09T06:52:38;9.30;;;8.50;;
19089;SDS011;9677;50.656;13.064;2022-09-09T06:55:08;9.13;;;8.33;;
19089;SDS011;9677;50.656;13.064;2022-09-09T06:57:37;9.10;;;8.30;;
19089;SDS011;9677;50.656;13.064;2022-09-09T07:00:11;9.20;;;8.40;;
19089;SDS011;9677;50.656;13.064;2022-09-09T07:02:41;9.53;;;8.53;;
19089;SDS011;9677;50.656;13.064;2022-09-09T07:05:12;9.40;;;8.60;;
19089;SDS011;9677;50.656;13.064;2022-09-09T07:07:43;9.10;;;8.30;;
19089;SDS011;9677;50.656;13.064;2022-09-09T07:10:14;9.40;;;8.60;;
19089;SDS011;9677;50.656;13.064;2022-09-09T07:12:43;9.43;;;8.63;;
19089;SDS011;9677;50.656;13.064;2022-09-09T07:15:13;9.57;;;8.77;;
19089;SDS011;9677;50.656;13.064;2022-09-09T07:17:43;9.23;;;8.43;;
19089;SDS011;9677;50.656;13.064;2022-09-09T07:20:15;9.40;;;8.50;;
19089;SDS011;9677;50.656;13.064;2022-09-09T07:22:43;9.40;;;8.60;;
19089;SDS011;9677;50.656;13.064;2022-09-09T07:25:12;9.20;;;8.40;;
19089;SDS011;9677;50.656;13.064;2022-09-09T07:27:40;9.00;;;8.30;;
19089;SDS011;9677;50.656;13.064;2022-09-09T07:30:10;9.10;;;8.30;;
19089;SDS011;9677;50.656;13.064;2022-09-09T07:32:47;10.37;;;9.33;;
19089;SDS011;9677;50.656;13.064;2022-09-09T07:35:17;9.20;;;8.40;;
19089;SDS011;9677;50.656;13.064;2022-09-09T07:37:46;9.20;;;8.40;;
19089;SDS011;9677;50.656;13.064;2022-09-09T07:40:18;9.10;;;8.30;;
19089;SDS011;9677;50.656;13.064;2022-09-09T07:42:48;9.20;;;8.30;;
19089;SDS011;9677;50.656;13.064;2022-09-09T07:45:16;9.20;;;8.40;;
19089;SDS011;9677;50.656;13.064;2022-09-09T07:47:45;9.20;;;8.40;;
19089;SDS011;9677;50.656;13.064;2022-09-09T07:50:14;8.80;;;8.10;;
19089;SDS011;9677;50.656;13.064;2022-09-09T07:52:44;9.33;;;8.40;;
19089;SDS011;9677;50.656;13.064;2022-09-09T07:55:13;9.00;;;8.20;;
19089;SDS011;9677;50.656;13.064;2022-09-09T07:57:42;9.00;;;8.20;;
19089;SDS011;9677;50.656;13.064;2022-09-09T08:00:11;9.00;;;8.20;;
19089;SDS011;9677;50.656;13.064;2022-09-09T08:02:47;9.10;;;8.30;;
19089;SDS011;9677;50.656;13.064;2022-09-09T08:05:16;9.10;;;8.30;;
19089;SDS011;9677;50.656;13.064;2022-09-09T08:07:46;9.03;;;8.20;;
19089;SDS011;9677;50.656;13.064;2022-09-09T08:10:14;9.10;;;8.30;;
19089;SDS011;9677;50.656;13.064;2022-09-09T08:12:46;9.20;;;8.30;;
19089;SDS011;9677;50.656;13.064;2022-09-09T08:15:36;8.90;;;8.10;;
19089;SDS011;9677;50.656;13.064;2022-09-09T08:18:04;9.00;;;8.20;;
19089;SDS011;9677;50.656;13.064;2022-09-09T08:20:35;10.90;;;8.53;;
19089;SDS011;9677;50.656;13.064;2022-09-09T08:23:06;9.10;;;8.30;;
19089;SDS011;9677;50.656;13.064;2022-09-09T08:25:35;9.20;;;8.30;;
19089;SDS011;9677;50.656;13.064;2022-09-09T08:28:03;9.00;;;8.20;;
19089;SDS011;9677;50.656;13.064;2022-09-09T08:30:32;9.23;;;8.20;;
19089;SDS011;9677;50.656;13.064;2022-09-09T08:33:00;8.83;;;8.07;;
19089;SDS011;9677;50.656;13.064;2022-09-09T08:35:29;9.10;;;8.30;;
19089;SDS011;9677;50.656;13.064;2022-09-09T08:37:59;9.20;;;8.40;;
19089;SDS011;9677;50.656;13.064;2022-09-09T08:40:33;9.10;;;8.30;;
19089;SDS011;9677;50.656;13.064;2022-09-09T08:43:13;9.10;;;8.30;;
19089;SDS011;9677;50.656;13.064;2022-09-09T08:45:47;8.80;;;8.03;;
19089;SDS011;9677;50.656;13.064;2022-09-09T08:48:29;9.10;;;8.30;;
19089;SDS011;9677;50.656;13.064;2022-09-09T08:51:12;8.77;;;8.03;;
19089;SDS011;9677;50.656;13.064;2022-09-09T08:53:43;8.93;;;8.17;;
19089;SDS011;9677;50.656;13.064;2022-09-09T08:56:18;8.87;;;8.07;;
19089;SDS011;9677;50.656;13.064;2022-09-09T08:58:54;9.10;;;8.30;;
19089;SDS011;9677;50.656;13.064;2022-09-09T09:01:43;9.10;;;8.30;;
19089;SDS011;9677;50.656;13.064;2022-09-09T09:04:43;9.50;;;8.60;;
19089;SDS011;9677;50.656;13.064;2022-09-09T09:07:28;9.10;;;8.30;;
19089;SDS011;9677;50.656;13.064;2022-09-09T09:10:12;9.20;;;8.30;;
19089;SDS011;9677;50.656;13.064;2022-09-09T09:13:12;8.80;;;8.07;;
19089;SDS011;9677;50.656;13.064;2022-09-09T09:15:52;8.87;;;8.10;;
19089;SDS011;9677;50.656;13.064;2022-09-09T09:18:26;8.50;;;7.80;;
19089;SDS011;9677;50.656;13.064;2022-09-09T09:21:16;8.90;;;8.10;;
19089;SDS011;9677;50.656;13.064;2022-09-09T09:23:51;9.10;;;8.20;;
19089;SDS011;9677;50.656;13.064;2022-09-09T09:26:31;8.83;;;7.93;;
19089;SDS011;9677;50.656;13.064;2022-09-09T09:29:09;9.00;;;8.13;;
19089;SDS011;9677;50.656;13.064;2022-09-09T09:31:42;9.40;;;8.27;;
19089;SDS011;9677;50.656;13.064;2022-09-09T09:34:14;10.00;;;7.90;;
19089;SDS011;9677;50.656;13.064;2022-09-09T09:36:46;8.87;;;8.10;;
19089;SDS011;9677;50.656;13.064;2022-09-09T09:39:22;8.87;;;8.10;;
19089;SDS011;9677;50.656;13.064;2022-09-09T09:42:14;8.70;;;7.90;;
19089;SDS011;9677;50.656;13.064;2022-09-09T09:44:51;8.80;;;8.00;;
19089;SDS011;9677;50.656;13.064;2022-09-09T09:47:21;9.03;;;8.13;;
19089;SDS011;9677;50.656;13.064;2022-09-09T09:49:58;8.80;;;8.00;;
19089;SDS011;9677;50.656;13.064;2022-09-09T09:52:34;11.33;;;8.07;;
19089;SDS011;9677;50.656;13.064;2022-09-09T09:55:11;8.90;;;8.03;;
19089;SDS011;9677;50.656;13.064;2022-09-09T09:57:44;9.20;;;8.30;;
19089;SDS011;9677;50.656;13.064;2022-09-09T10:00:15;8.30;;;7.60;;
19089;SDS011;9677;50.656;13.064;2022-09-09T10:02:54;8.80;;;8.00;;
19089;SDS011;9677;50.656;13.064;2022-09-09T10:05:27;8.40;;;7.70;;
19089;SDS011;9677;50.656;13.064;2022-09-09T10:08:09;8.30;;;7.60;;
19089;SDS011;9677;50.656;13.064;2022-09-09T10:10:44;8.37;;;7.67;;
19089;SDS011;9677;50.656;13.064;2022-09-09T10:13:24;8.77;;;7.97;;
19089;SDS011;9677;50.656;13.064;2022-09-09T10:16:05;8.60;;;7.90;;
19089;SDS011;9677;50.656;13.064;2022-09-09T10:18:57;8.70;;;7.90;;
19089;SDS011;9677;50.656;13.064;2022-09-09T10:21:32;8.90;;;8.10;;
19089;SDS011;9677;50.656;13.064;2022-09-09T10:24:25;8.70;;;8.00;;
19089;SDS011;9677;50.656;13.064;2022-09-09T10:27:20;8.40;;;7.70;;
19089;SDS011;9677;50.656;13.064;2022-09-09T10:29:57;8.57;;;7.77;;
19089;SDS011;9677;50.656;13.064;2022-09-09T10:32:41;8.57;;;7.77;;
19089;SDS011;9677;50.656;13.064;2022-09-09T10:35:20;8.80;;;7.90;;
19089;SDS011;9677;50.656;13.064;2022-09-09T10:37:58;8.50;;;7.80;;
19089;SDS011;9677;50.656;13.064;2022-09-09T10:40:46;8.70;;;7.90;;
19089;SDS011;9677;50.656;13.064;2022-09-09T10:43:45;8.30;;;7.60;;
19089;SDS011;9677;50.656;13.064;2022-09-09T10:46:36;8.53;;;7.83;;
19089;SDS011;9677;50.656;13.064;2022-09-09T10:49:26;8.30;;;7.50;;
19089;SDS011;9677;50.656;13.064;2022-09-09T10:52:26;8.57;;;7.77;;
19089;SDS011;9677;50.656;13.064;2022-09-09T10:55:00;8.47;;;7.73;;
19089;SDS011;9677;50.656;13.064;2022-09-09T10:57:37;8.83;;;7.93;;
19089;SDS011;9677;50.656;13.064;2022-09-09T11:00:13;8.60;;;7.70;;
19089;SDS011;9677;50.656;13.064;2022-09-09T11:02:47;8.40;;;7.70;;
19089;SDS011;9677;50.656;13.064;2022-09-09T11:05:23;8.27;;;7.57;;
19089;SDS011;9677;50.656;13.064;2022-09-09T11:08:01;8.40;;;7.60;;
19089;SDS011;9677;50.656;13.064;2022-09-09T11:10:34;8.53;;;7.80;;
19089;SDS011;9677;50.656;13.064;2022-09-09T11:13:10;8.50;;;7.70;;
19089;SDS011;9677;50.656;13.064;2022-09-09T11:15:44;8.40;;;7.60;;
19089;SDS011;9677;50.656;13.064;2022-09-09T11:18:18;8.40;;;7.70;;
19089;SDS011;9677;50.656;13.064;2022-09-09T11:20:51;8.20;;;7.50;;
19089;SDS011;9677;50.656;13.064;2022-09-09T11:23:27;9.70;;;7.80;;
19089;SDS011;9677;50.656;13.064;2022-09-09T11:26:07;8.17;;;7.47;;
19089;SDS011;9677;50.656;13.064;2022-09-09T11:28:44;8.23;;;7.50;;
19089;SDS011;9677;50.656;13.064;2022-09-09T11:31:36;8.73;;;8.00;;
19089;SDS011;9677;50.656;13.064;2022-09-09T11:34:17;8.63;;;7.83;;
19089;SDS011;9677;50.656;13.064;2022-09-09T11:37:06;8.50;;;7.70;;
19089;SDS011;9677;50.656;13.064;2022-09-09T11:40:04;8.33;;;7.53;;
19089;SDS011;9677;50.656;13.064;2022-09-09T11:42:47;9.07;;;7.70;;
19089;SDS011;9677;50.656;13.064;2022-09-09T11:45:20;8.40;;;7.70;;
19089;SDS011;9677;50.656;13.064;2022-09-09T11:47:55;8.60;;;7.80;;
19089;SDS011;9677;50.656;13.064;2022-09-09T11:50:32;8.57;;;7.80;;
19089;SDS011;9677;50.656;13.064;2022-09-09T11:53:21;8.40;;;7.70;;
19089;SDS011;9677;50.656;13.064;2022-09-09T11:56:06;8.40;;;7.70;;
19089;SDS011;9677;50.656;13.064;2022-09-09T11:58:41;8.57;;;7.80;;
19089;SDS011;9677;50.656;13.064;2022-09-09T12:01:28;8.37;;;7.63;;
19089;SDS011;9677;50.656;13.064;2022-09-09T12:04:06;8.40;;;7.70;;
19089;SDS011;9677;50.656;13.064;2022-09-09T12:06:49;8.50;;;7.80;;
19089;SDS011;9677;50.656;13.064;2022-09-09T12:09:27;8.40;;;7.60;;
19089;SDS011;9677;50.656;13.064;2022-09-09T12:12:07;8.30;;;7.60;;
19089;SDS011;9677;50.656;13.064;2022-09-09T12:14:56;8.40;;;7.60;;
19089;SDS011;9677;50.656;13.064;2022-09-09T12:17:47;9.00;;;8.10;;
19089;SDS011;9677;50.656;13.064;2022-09-09T12:20:18;8.57;;;7.87;;
19089;SDS011;9677;50.656;13.064;2022-09-09T12:22:56;8.43;;;7.73;;
19089;SDS011;9677;50.656;13.064;2022-09-09T12:25:52;8.30;;;7.60;;
19089;SDS011;9677;50.656;13.064;2022-09-09T12:28:36;8.67;;;7.90;;
19089;SDS011;9677;50.656;13.064;2022-09-09T12:31:15;8.60;;;7.80;;
19089;SDS011;9677;50.656;13.064;2022-09-09T12:33:50;8.67;;;7.87;;
19089;SDS011;9677;50.656;13.064;2022-09-09T12:36:19;8.60;;;7.80;;
19089;SDS011;9677;50.656;13.064;2022-09-09T12:38:52;8.40;;;7.70;;
19089;SDS011;9677;50.656;13.064;2022-09-09T12:41:25;8.40;;;7.70;;
19089;SDS011;9677;50.656;13.064;2022-09-09T12:44:03;8.60;;;7.80;;
19089;SDS011;9677;50.656;13.064;2022-09-09T12:46:35;8.60;;;7.80;;
19089;SDS011;9677;50.656;13.064;2022-09-09T12:49:20;8.47;;;7.67;;
19089;SDS011;9677;50.656;13.064;2022-09-09T12:51:57;8.63;;;7.83;;
19089;SDS011;9677;50.656;13.064;2022-09-09T12:54:26;8.50;;;7.70;;
19089;SDS011;9677;50.656;13.064;2022-09-09T12:56:56;8.40;;;7.70;;
19089;SDS011;9677;50.656;13.064;2022-09-09T12:59:25;8.50;;;7.80;;
19089;SDS011;9677;50.656;13.064;2022-09-09T13:02:11;8.60;;;7.90;;
19089;SDS011;9677;50.656;13.064;2022-09-09T13:04:46;8.53;;;7.83;;
19089;SDS011;9677;50.656;13.064;2022-09-09T13:07:17;8.57;;;7.87;;
19089;SDS011;9677;50.656;13.064;2022-09-09T13:09:46;8.63;;;7.90;;
19089;SDS011;9677;50.656;13.064;2022-09-09T13:12:18;8.50;;;7.80;;
19089;SDS011;9677;50.656;13.064;2022-09-09T13:14:49;8.27;;;7.57;;
19089;SDS011;9677;50.656;13.064;2022-09-09T13:17:21;8.30;;;7.60;;
19089;SDS011;9677;50.656;13.064;2022-09-09T13:19:51;8.60;;;7.80;;
19089;SDS011;9677;50.656;13.064;2022-09-09T13:22:23;8.83;;;7.90;;
19089;SDS011;9677;50.656;13.064;2022-09-09T13:25:00;8.77;;;7.97;;
19089;SDS011;9677;50.656;13.064;2022-09-09T13:27:34;8.90;;;8.10;;
19089;SDS011;9677;50.656;13.064;2022-09-09T13:30:21;8.53;;;7.67;;
19089;SDS011;9677;50.656;13.064;2022-09-09T13:33:04;8.53;;;7.83;;
19089;SDS011;9677;50.656;13.064;2022-09-09T13:35:47;8.60;;;7.80;;
19089;SDS011;9677;50.656;13.064;2022-09-09T13:38:18;8.60;;;7.80;;
19089;SDS011;9677;50.656;13.064;2022-09-09T13:40:53;8.80;;;7.90;;
19089;SDS011;9677;50.656;13.064;2022-09-09T13:43:27;8.60;;;7.90;;
19089;SDS011;9677;50.656;13.064;2022-09-09T13:45:58;8.63;;;7.87;;
19089;SDS011;9677;50.656;13.064;2022-09-09T13:48:28;8.63;;;7.83;;
19089;SDS011;9677;50.656;13.064;2022-09-09T13:50:59;8.40;;;7.70;;
19089;SDS011;9677;50.656;13.064;2022-09-09T13:53:30;8.70;;;7.90;;
19089;SDS011;9677;50.656;13.064;2022-09-09T13:55:59;8.63;;;7.77;;
19089;SDS011;9677;50.656;13.064;2022-09-09T13:58:30;8.77;;;7.97;;
19089;SDS011;9677;50.656;13.064;2022-09-09T14:00:58;8.37;;;7.67;;
19089;SDS011;9677;50.656;13.064;2022-09-09T14:03:26;8.37;;;7.63;;
19089;SDS011;9677;50.656;13.064;2022-09-09T14:05:55;8.53;;;7.73;;
19089;SDS011;9677;50.656;13.064;2022-09-09T14:08:24;8.50;;;7.80;;
19089;SDS011;9677;50.656;13.064;2022-09-09T14:10:55;8.73;;;7.97;;
19089;SDS011;9677;50.656;13.064;2022-09-09T14:13:24;8.27;;;7.57;;
19089;SDS011;9677;50.656;13.064;2022-09-09T14:15:54;8.90;;;8.00;;
19089;SDS011;9677;50.656;13.064;2022-09-09T14:18:23;8.67;;;7.90;;
19089;SDS011;9677;50.656;13.064;2022-09-09T14:20:51;8.50;;;7.73;;
19089;SDS011;9677;50.656;13.064;2022-09-09T14:23:20;9.10;;;8.20;;
19089;SDS011;9677;50.656;13.064;2022-09-09T14:25:49;8.57;;;7.73;;
19089;SDS011;9677;50.656;13.064;2022-09-09T14:28:18;8.70;;;7.90;;
19089;SDS011;9677;50.656;13.064;2022-09-09T14:31:08;8.70;;;7.90;;
19089;SDS011;9677;50.656;13.064;2022-09-09T14:33:36;8.90;;;8.07;;
19089;SDS011;9677;50.656;13.064;2022-09-09T14:36:05;8.40;;;7.70;;
19089;SDS011;9677;50.656;13.064;2022-09-09T14:38:34;8.77;;;7.97;;
19089;SDS011;9677;50.656;13.064;2022-09-09T14:41:06;8.70;;;7.93;;
19089;SDS011;9677;50.656;13.064;2022-09-09T14:43:35;9.00;;;8.10;;
19089;SDS011;9677;50.656;13.064;2022-09-09T14:46:05;8.50;;;7.80;;
19089;SDS011;9677;50.656;13.064;2022-09-09T14:48:36;8.67;;;7.90;;
19089;SDS011;9677;50.656;13.064;2022-09-09T14:51:07;8.70;;;7.90;;
19089;SDS011;9677;50.656;13.064;2022-09-09T14:53:39;8.77;;;7.97;;
19089;SDS011;9677;50.656;13.064;2022-09-09T14:56:09;9.73;;;8.73;;
19089;SDS011;9677;50.656;13.064;2022-09-09T14:58:39;9.10;;;8.20;;
19089;SDS011;9677;50.656;13.064;2022-09-09T15:01:10;9.10;;;8.30;;
19089;SDS011;9677;50.656;13.064;2022-09-09T15:03:41;8.50;;;7.80;;
19089;SDS011;9677;50.656;13.064;2022-09-09T15:06:17;8.60;;;7.90;;
19089;SDS011;9677;50.656;13.064;2022-09-09T15:08:47;8.60;;;7.80;;
19089;SDS011;9677;50.656;13.064;2022-09-09T15:11:19;8.67;;;7.87;;
19089;SDS011;9677;50.656;13.064;2022-09-09T15:13:50;8.80;;;8.00;;
19089;SDS011;9677;50.656;13.064;2022-09-09T15:16:21;8.60;;;7.90;;
19089;SDS011;9677;50.656;13.064;2022-09-09T15:18:53;8.60;;;7.80;;
19089;SDS011;9677;50.656;13.064;2022-09-09T15:21:25;8.50;;;7.80;;
19089;SDS011;9677;50.656;13.064;2022-09-09T15:23:55;8.50;;;7.70;;
19089;SDS011;9677;50.656;13.064;2022-09-09T15:26:25;8.97;;;8.07;;
19089;SDS011;9677;50.656;13.064;2022-09-09T15:28:54;8.70;;;8.00;;
19089;SDS011;9677;50.656;13.064;2022-09-09T15:31:27;8.80;;;8.00;;
19089;SDS011;9677;50.656;13.064;2022-09-09T15:33:59;8.80;;;8.00;;